Time;durP1;ratioP1;P1;durP2;ratioP2;P2;SDS_P1;SDS_P2;PMS_P1;PMS_P2;Temp;Humidity;BMP_temperature;BMP_pressure;BME280_temperature;BME280_humidity;BME280_pressure;Samples;Min_cycle;Max_cycle;Signal;HPM_P1;HPM_P2
2024/02/17 00:01:31;;;;;;;4.67;4.17;;;14.30;1.00;;;;;;5078029;28;20194;-44
2024/02/17 00:03:58;;;;;;;3.67;3.27;;;14.30;1.00;;;;;;5096119;28;20453;-42
2024/02/17 00:06:23;;;;;;;3.80;3.40;;;14.30;1.00;;;;;;5097158;28;20433;-41
2024/02/17 00:08:49;;;;;;;5.00;3.87;;;14.30;1.00;;;;;;5097106;28;20498;-43
2024/02/17 00:11:15;;;;;;;5.63;3.50;;;14.30;1.00;;;;;;5080856;28;20210;-42
2024/02/17 00:13:43;;;;;;;7.20;3.70;;;14.30;1.00;;;;;;5096183;28;20462;-42
2024/02/17 00:16:08;;;;;;;3.73;3.33;;;14.30;1.00;;;;;;5098978;28;20195;-43
2024/02/17 00:18:34;;;;;;;4.33;3.37;;;14.30;1.00;;;;;;5098285;28;20418;-43
2024/02/17 00:21:03;;;;;;;3.83;3.40;;;14.30;1.00;;;;;;5098002;28;20608;-42
2024/02/17 00:23:29;;;;;;;7.00;3.93;;;14.30;1.00;;;;;;5081608;28;20434;-42
2024/02/17 00:25:54;;;;;;;3.47;3.10;;;14.20;1.00;;;;;;5079591;28;20414;-42
2024/02/17 00:28:25;;;;;;;6.93;4.77;;;14.20;1.00;;;;;;5096099;28;20473;-44
2024/02/17 00:30:51;;;;;;;4.03;3.63;;;14.20;1.00;;;;;;5096825;28;20195;-44
2024/02/17 00:33:16;;;;;;;3.40;3.10;;;14.20;1.00;;;;;;5097583;28;20756;-42
2024/02/17 00:35:43;;;;;;;7.27;3.47;;;14.20;1.00;;;;;;5098576;28;20188;-42
2024/02/17 00:38:09;;;;;;;4.93;3.80;;;14.20;1.00;;;;;;5097875;28;20554;-45
2024/02/17 00:40:34;;;;;;;4.50;3.47;;;14.20;1.00;;;;;;5097326;28;20476;-42
2024/02/17 00:43:00;;;;;;;6.63;4.17;;;14.20;1.00;;;;;;5097474;28;20181;-42
2024/02/17 00:45:25;;;;;;;5.90;4.60;;;14.20;1.00;;;;;;5098334;28;20180;-43
2024/02/17 00:47:51;;;;;;;5.20;4.30;;;14.20;1.00;;;;;;5097473;28;20191;-44
2024/02/17 00:50:17;;;;;;;6.40;3.70;;;14.10;4.50;;;;;;5096016;28;20241;-43
2024/02/17 00:52:42;;;;;;;5.37;4.50;;;14.10;13.30;;;;;;5095129;28;20243;-41
2024/02/17 00:55:08;;;;;;;4.40;4.00;;;14.10;19.80;;;;;;5097070;28;20168;-44
2024/02/17 00:57:33;;;;;;;4.50;4.10;;;14.10;30.00;;;;;;5095955;28;20458;-43
2024/02/17 01:00:17;;;;;;;4.80;3.77;;;14.10;39.90;;;;;;5096406;28;20538;-42
2024/02/17 01:02:42;;;;;;;4.40;4.00;;;14.10;37.80;;;;;;5095368;28;20260;-42
2024/02/17 01:05:08;;;;;;;5.17;3.83;;;14.10;38.40;;;;;;5095361;28;20839;-42
2024/02/17 01:07:34;;;;;;;5.30;4.30;;;14.10;39.80;;;;;;5093426;28;20233;-41
2024/02/17 01:10:00;;;;;;;4.37;3.40;;;14.10;37.00;;;;;;5095353;28;20184;-44
2024/02/17 01:12:25;;;;;;;4.20;3.80;;;14.00;38.50;;;;;;5097753;28;20422;-44
2024/02/17 01:14:51;;;;;;;4.30;3.77;;;14.00;29.50;;;;;;5097861;28;20181;-45
2024/02/17 01:17:16;;;;;;;6.13;3.13;;;14.00;31.80;;;;;;5096656;28;20337;-44
2024/02/17 01:19:42;;;;;;;3.67;3.17;;;14.00;32.40;;;;;;5097727;28;20256;-43
2024/02/17 01:22:08;;;;;;;3.47;3.17;;;14.00;35.20;;;;;;5097498;28;20483;-42
2024/02/17 01:24:34;;;;;;;3.77;3.20;;;14.00;45.70;;;;;;5095619;28;20266;-46
2024/02/17 01:26:59;;;;;;;3.43;3.07;;;14.00;56.50;;;;;;5096869;28;20459;-44
2024/02/17 01:29:25;;;;;;;3.10;2.90;;;14.00;53.60;;;;;;5095993;28;20279;-42
2024/02/17 01:31:51;;;;;;;5.10;3.60;;;14.00;69.20;;;;;;5097495;28;20180;-42
2024/02/17 01:34:17;;;;;;;4.00;3.60;;;13.90;81.50;;;;;;5097413;28;20280;-41
2024/02/17 01:36:45;;;;;;;3.20;2.87;;;14.00;84.40;;;;;;5097522;28;20509;-43
2024/02/17 01:39:10;;;;;;;4.13;3.17;;;14.00;84.20;;;;;;5097148;28;20430;-43
2024/02/17 01:41:36;;;;;;;4.13;2.53;;;14.00;83.10;;;;;;5097006;28;20650;-45
2024/02/17 01:44:03;;;;;;;3.20;2.60;;;13.90;73.50;;;;;;5097299;28;20217;-42
2024/02/17 01:46:28;;;;;;;4.07;2.80;;;13.90;73.40;;;;;;5097075;28;20275;-43
2024/02/17 01:48:54;;;;;;;3.60;2.57;;;13.90;77.80;;;;;;5096422;28;20433;-44
2024/02/17 01:51:21;;;;;;;2.57;2.23;;;13.90;90.80;;;;;;5097063;28;20185;-42
2024/02/17 01:53:46;;;;;;;3.33;2.87;;;13.90;91.60;;;;;;5095605;28;20219;-43
2024/02/17 01:56:15;;;;;;;2.73;2.37;;;13.90;89.80;;;;;;5095107;28;20426;-42
2024/02/17 01:58:41;;;;;;;3.00;2.30;;;13.80;96.00;;;;;;5095287;28;20177;-42
2024/02/17 02:01:06;;;;;;;2.90;2.60;;;13.90;99.50;;;;;;5094341;28;20433;-44
2024/02/17 02:03:32;;;;;;;3.33;3.03;;;13.80;95.60;;;;;;5095231;28;20261;-46
2024/02/17 02:05:58;;;;;;;5.43;4.13;;;13.90;96.10;;;;;;5095312;28;20172;-46
2024/02/17 02:08:23;;;;;;;4.13;3.00;;;13.90;99.90;;;;;;5095913;28;20237;-43
2024/02/17 02:10:49;;;;;;;4.17;2.50;;;13.80;99.90;;;;;;5095279;28;20688;-44
2024/02/17 02:13:14;;;;;;;5.10;2.93;;;13.80;99.90;;;;;;5096075;28;20299;-43
2024/02/17 02:15:43;;;;;;;3.93;3.50;;;13.80;99.90;;;;;;5096840;28;20263;-42
2024/02/17 02:18:10;;;;;;;6.00;3.87;;;13.80;99.90;;;;;;5097347;28;20189;-45
2024/02/17 02:20:36;;;;;;;4.23;3.00;;;13.80;99.90;;;;;;5097495;28;20422;-42
2024/02/17 02:23:02;;;;;;;3.07;2.77;;;13.80;99.90;;;;;;5097306;28;20606;-45
2024/02/17 02:25:28;;;;;;;3.20;2.90;;;13.80;99.90;;;;;;5096894;28;20471;-42
2024/02/17 02:27:54;;;;;;;3.40;3.00;;;13.70;99.90;;;;;;5098256;28;20498;-43
2024/02/17 02:30:21;;;;;;;4.60;3.67;;;13.80;99.90;;;;;;5099346;28;20331;-42
2024/02/17 02:32:47;;;;;;;3.83;3.30;;;13.80;99.90;;;;;;5098556;28;20998;-42
2024/02/17 02:35:12;;;;;;;4.60;3.77;;;13.70;99.90;;;;;;5099208;28;20454;-44
2024/02/17 02:37:38;;;;;;;4.57;3.70;;;13.70;99.90;;;;;;5098161;28;20169;-43
2024/02/17 02:40:04;;;;;;;5.57;4.27;;;13.70;99.90;;;;;;5102388;28;20181;-41
2024/02/17 02:42:30;;;;;;;6.27;4.37;;;13.70;99.90;;;;;;5101845;28;20181;-42
2024/02/17 02:44:55;;;;;;;4.43;4.03;;;13.70;99.90;;;;;;5100374;28;20423;-41
2024/02/17 02:47:21;;;;;;;5.03;4.00;;;13.70;99.90;;;;;;5099764;28;20515;-42
2024/02/17 02:49:47;;;;;;;4.30;3.80;;;13.70;99.90;;;;;;5100294;28;20241;-42
2024/02/17 02:52:13;;;;;;;3.67;3.37;;;13.70;99.90;;;;;;5100152;28;20451;-43
2024/02/17 02:54:39;;;;;;;5.40;4.40;;;13.60;99.90;;;;;;5100829;28;20582;-43
2024/02/17 02:57:05;;;;;;;4.70;4.20;;;13.60;99.90;;;;;;5100233;28;20579;-44
2024/02/17 02:59:30;;;;;;;3.50;3.20;;;13.50;99.90;;;;;;5100402;28;20263;-42
2024/02/17 03:01:57;;;;;;;5.10;3.60;;;13.40;99.90;;;;;;5099268;28;20511;-42
2024/02/17 03:04:22;;;;;;;4.90;4.00;;;13.40;99.90;;;;;;5100133;28;20176;-44
2024/02/17 03:06:48;;;;;;;5.17;4.67;;;13.40;99.90;;;;;;5099624;28;20434;-44
2024/02/17 03:09:14;;;;;;;3.67;3.37;;;13.40;99.90;;;;;;5100084;28;20461;-42
2024/02/17 03:11:41;;;;;;;4.50;4.10;;;13.30;99.90;;;;;;5100346;28;20184;-42
2024/02/17 03:14:07;;;;;;;5.30;4.80;;;13.30;99.90;;;;;;5100432;28;20211;-42
2024/02/17 03:16:33;;;;;;;5.53;4.50;;;13.30;99.90;;;;;;5082665;28;20414;-42
2024/02/17 03:22:21;;;;;;;6.33;5.73;;;13.20;99.90;;;;;;5100269;28;20529;-42
2024/02/17 03:24:47;;;;;;;7.17;6.57;;;13.20;97.60;;;;;;5099974;28;20437;-43
2024/02/17 03:27:13;;;;;;;7.10;6.40;;;13.20;80.00;;;;;;5100259;28;20177;-42
2024/02/17 03:29:38;;;;;;;7.60;6.80;;;13.10;85.10;;;;;;5099107;28;20805;-44
2024/02/17 03:32:05;;;;;;;7.50;6.70;;;13.10;85.50;;;;;;5100268;28;20211;-42
2024/02/17 03:34:31;;;;;;;7.40;6.70;;;13.10;81.80;;;;;;5099624;28;20212;-44
2024/02/17 03:36:57;;;;;;;6.80;6.20;;;13.10;78.50;;;;;;5099978;28;20433;-42
2024/02/17 03:39:23;;;;;;;7.10;6.40;;;13.10;84.20;;;;;;5099407;28;20430;-42
2024/02/17 03:41:49;;;;;;;9.00;6.90;;;13.10;80.40;;;;;;5099601;28;20471;-42
2024/02/17 03:44:16;;;;;;;6.70;6.07;;;13.10;73.90;;;;;;5099719;28;20195;-43
2024/02/17 03:46:41;;;;;;;6.70;6.00;;;13.10;66.10;;;;;;5099629;28;20426;-45
2024/02/17 03:49:07;;;;;;;7.37;6.67;;;13.10;60.30;;;;;;5099247;28;20444;-45
2024/02/17 03:51:33;;;;;;;6.90;6.20;;;13.00;63.20;;;;;;5099698;28;20212;-43
2024/02/17 03:53:58;;;;;;;6.83;6.10;;;13.00;64.60;;;;;;5098408;28;20461;-43
2024/02/17 03:56:25;;;;;;;7.00;6.30;;;13.00;61.00;;;;;;5099691;28;20561;-43
2024/02/17 03:58:50;;;;;;;7.47;6.67;;;13.00;55.90;;;;;;5099188;28;20173;-41
2024/02/17 04:01:16;;;;;;;7.80;7.00;;;13.00;54.20;;;;;;5099192;28;20840;-41
2024/02/17 04:03:42;;;;;;;7.30;6.33;;;13.00;46.10;;;;;;5098781;28;20229;-41
2024/02/17 04:06:08;;;;;;;8.30;7.40;;;13.00;41.00;;;;;;5099051;28;20438;-42
2024/02/17 04:08:33;;;;;;;8.33;7.53;;;13.00;38.80;;;;;;5098223;28;20537;-42
2024/02/17 04:11:00;;;;;;;9.83;7.60;;;13.00;35.70;;;;;;5099441;28;20271;-42
2024/02/17 04:13:27;;;;;;;8.70;7.30;;;13.00;34.20;;;;;;5097295;28;20834;-41
2024/02/17 04:15:53;;;;;;;7.30;6.60;;;13.00;24.10;;;;;;5096658;28;20941;-43
2024/02/17 04:18:18;;;;;;;7.60;6.80;;;13.00;20.50;;;;;;5096342;28;20457;-44
2024/02/17 04:20:44;;;;;;;7.53;6.73;;;12.90;17.60;;;;;;5097667;28;20195;-41
2024/02/17 04:23:10;;;;;;;6.83;6.13;;;12.90;15.30;;;;;;5097977;28;20180;-42
2024/02/17 04:25:36;;;;;;;8.37;7.57;;;12.90;9.50;;;;;;5096783;28;20183;-43
2024/02/17 04:28:03;;;;;;;7.20;6.47;;;12.90;5.40;;;;;;5096772;28;20539;-42
2024/02/17 04:30:30;;;;;;;7.90;6.63;;;12.90;3.90;;;;;;5097072;28;20176;-42
2024/02/17 04:32:55;;;;;;;7.63;6.50;;;12.90;4.10;;;;;;5080527;28;20472;-41
2024/02/17 04:35:21;;;;;;;6.77;6.03;;;12.90;1.90;;;;;;5080987;28;20820;-43
2024/02/17 04:37:47;;;;;;;7.27;6.37;;;12.90;1.80;;;;;;5097837;28;20321;-44
2024/02/17 04:40:15;;;;;;;7.23;6.53;;;12.80;1.50;;;;;;5096081;28;20489;-42
2024/02/17 04:42:43;;;;;;;7.80;6.80;;;12.80;1.00;;;;;;5097895;28;20176;-42
2024/02/17 04:45:10;;;;;;;6.60;5.87;;;12.80;1.00;;;;;;5098509;28;20746;-41
2024/02/17 04:47:36;;;;;;;6.53;5.90;;;12.80;1.00;;;;;;5079467;28;20509;-42
2024/02/17 04:50:01;;;;;;;7.43;6.13;;;12.80;1.00;;;;;;5097804;28;20429;-42
2024/02/17 04:52:27;;;;;;;7.03;5.73;;;12.80;1.00;;;;;;5098263;28;20426;-42
2024/02/17 04:54:53;;;;;;;7.07;6.17;;;12.80;1.00;;;;;;5098129;28;20175;-42
2024/02/17 04:57:18;;;;;;;6.60;6.00;;;12.80;1.00;;;;;;5096905;28;20190;-42
2024/02/17 04:59:44;;;;;;;6.37;5.77;;;12.80;1.00;;;;;;5096616;28;21116;-41
2024/02/17 05:02:11;;;;;;;6.43;5.83;;;12.80;1.00;;;;;;5096238;28;20176;-42
2024/02/17 05:04:36;;;;;;;7.17;6.27;;;12.80;1.00;;;;;;5097590;28;20168;-42
2024/02/17 05:07:02;;;;;;;8.70;6.93;;;12.80;1.00;;;;;;5096965;28;20434;-42
2024/02/17 05:09:28;;;;;;;7.30;6.60;;;12.80;1.00;;;;;;5097049;28;20271;-41
2024/02/17 05:11:55;;;;;;;7.37;6.67;;;12.80;1.00;;;;;;5097796;28;20670;-42
2024/02/17 05:14:25;;;;;;;8.30;7.50;;;12.80;1.00;;;;;;5097186;28;20208;-44
2024/02/17 05:16:51;;;;;;;8.67;6.53;;;12.80;1.00;;;;;;5097491;28;20812;-44
2024/02/17 05:19:17;;;;;;;6.97;6.27;;;12.70;1.00;;;;;;5097612;28;20438;-43
2024/02/17 05:21:43;;;;;;;7.00;6.30;;;12.70;1.00;;;;;;5098053;28;20426;-43
2024/02/17 05:24:09;;;;;;;9.20;6.90;;;12.70;1.00;;;;;;5096745;28;20835;-43
2024/02/17 05:26:36;;;;;;;7.47;6.70;;;12.70;1.00;;;;;;5097040;28;20410;-43
2024/02/17 05:29:08;;;;;;;8.00;6.50;;;12.70;1.00;;;;;;5096748;28;20764;-45
2024/02/17 05:31:35;;;;;;;8.43;6.97;;;12.70;1.00;;;;;;5097247;28;20431;-42
2024/02/17 05:34:01;;;;;;;8.80;7.80;;;12.70;1.00;;;;;;5097356;28;20476;-43
2024/02/17 05:36:27;;;;;;;7.90;6.87;;;12.70;1.00;;;;;;5097721;28;20441;-46
2024/02/17 05:38:53;;;;;;;8.57;7.77;;;12.60;1.00;;;;;;5098026;28;20410;-43
2024/02/17 05:41:19;;;;;;;8.83;7.93;;;12.60;1.00;;;;;;5097674;28;20808;-41
2024/02/17 05:43:45;;;;;;;9.17;8.30;;;12.60;1.00;;;;;;5097923;28;20426;-42
2024/02/17 05:46:10;;;;;;;8.70;7.90;;;12.70;1.00;;;;;;5097692;28;20878;-43
2024/02/17 05:48:36;;;;;;;8.60;7.73;;;12.60;1.00;;;;;;5094358;28;20454;-45
2024/02/17 05:51:02;;;;;;;8.57;7.77;;;12.60;1.00;;;;;;5094145;28;20261;-41
2024/02/17 05:53:28;;;;;;;9.23;8.33;;;12.60;1.00;;;;;;5094789;28;20212;-39
2024/02/17 05:55:53;;;;;;;11.00;9.73;;;12.60;1.00;;;;;;5095031;28;20427;-41
2024/02/17 05:58:19;;;;;;;11.90;8.23;;;12.60;1.00;;;;;;5095055;28;20211;-43
2024/02/17 06:00:44;;;;;;;9.87;8.77;;;12.60;1.00;;;;;;5092436;28;20267;-42
2024/02/17 06:03:10;;;;;;;10.00;9.00;;;12.60;1.00;;;;;;5095761;28;20585;-40
2024/02/17 06:05:36;;;;;;;10.47;9.47;;;12.60;1.00;;;;;;5096568;28;20184;-42
2024/02/17 06:08:03;;;;;;;9.67;8.70;;;12.60;1.00;;;;;;5096769;28;20194;-45
2024/02/17 06:10:28;;;;;;;10.57;9.47;;;12.60;1.00;;;;;;5094712;28;20172;-40
2024/02/17 06:12:54;;;;;;;9.80;8.80;;;12.60;1.00;;;;;;5097142;28;20791;-42
2024/02/17 06:15:20;;;;;;;9.73;8.73;;;12.50;1.00;;;;;;5098711;28;20193;-43
2024/02/17 06:17:49;;;;;;;9.43;8.23;;;12.50;1.00;;;;;;5099796;28;20438;-41
2024/02/17 06:22:59;;;;;;;9.90;8.87;;;12.50;1.00;;;;;;5099333;28;20539;-42
2024/02/17 06:25:24;;;;;;;10.40;9.30;;;12.50;1.00;;;;;;5100740;28;20465;-44
2024/02/17 06:27:50;;;;;;;11.27;10.13;;;12.50;1.00;;;;;;5100838;28;20210;-41
2024/02/17 06:30:16;;;;;;;11.80;10.57;;;12.50;1.00;;;;;;5100118;28;20236;-41
2024/02/17 06:32:42;;;;;;;9.33;8.43;;;12.50;1.00;;;;;;5097647;28;20581;-40
2024/02/17 06:35:09;;;;;;;10.33;9.23;;;12.50;1.00;;;;;;5097876;28;20846;-43
2024/02/17 06:37:35;;;;;;;11.07;9.97;;;12.50;1.00;;;;;;5097841;28;20501;-43
2024/02/17 06:40:01;;;;;;;11.10;10.00;;;12.50;1.00;;;;;;5097883;28;20509;-42
2024/02/17 06:42:26;;;;;;;12.10;10.90;;;12.50;1.00;;;;;;5095651;28;20712;-41
2024/02/17 06:44:52;;;;;;;12.27;11.07;;;12.40;1.00;;;;;;5097277;28;20430;-42
2024/02/17 06:47:19;;;;;;;11.90;10.43;;;12.40;1.00;;;;;;5097042;28;20172;-40
2024/02/17 06:49:45;;;;;;;12.63;11.30;;;12.40;1.00;;;;;;5097359;28;20263;-43
2024/02/17 06:52:11;;;;;;;10.97;9.87;;;12.40;1.00;;;;;;5097990;28;20654;-40
2024/02/17 06:54:36;;;;;;;12.03;10.80;;;12.40;1.00;;;;;;5098657;28;20857;-42
2024/02/17 06:57:02;;;;;;;12.77;11.47;;;12.40;1.00;;;;;;5097549;28;20184;-47
2024/02/17 06:59:28;;;;;;;13.20;11.80;;;12.30;1.00;;;;;;5095899;28;20328;-42
2024/02/17 07:01:53;;;;;;;12.77;11.47;;;12.30;1.00;;;;;;5096238;28;20571;-42
2024/02/17 07:04:19;;;;;;;12.90;11.60;;;12.30;1.00;;;;;;5097975;28;20192;-40
2024/02/17 07:06:44;;;;;;;12.57;11.27;;;12.30;1.00;;;;;;5098260;28;20177;-41
2024/02/17 07:09:18;;;;;;;12.07;10.80;;;12.30;1.00;;;;;;5097870;28;20293;-42
2024/02/17 07:11:44;;;;;;;14.57;13.00;;;12.30;1.00;;;;;;5095939;28;20196;-42
2024/02/17 07:14:12;;;;;;;13.07;11.70;;;12.20;1.00;;;;;;5095552;28;20558;-41
2024/02/17 07:16:37;;;;;;;12.50;11.20;;;12.30;1.00;;;;;;5094150;28;20200;-41
2024/02/17 07:19:03;;;;;;;13.10;11.70;;;12.20;1.00;;;;;;5095514;28;20445;-43
2024/02/17 07:21:30;;;;;;;12.97;11.30;;;12.20;1.00;;;;;;5097618;28;20425;-42
2024/02/17 07:23:55;;;;;;;14.23;11.17;;;12.30;1.00;;;;;;5095452;28;20428;-41
2024/02/17 07:26:21;;;;;;;15.83;12.20;;;12.30;1.00;;;;;;5096846;28;20487;-41
2024/02/17 07:28:48;;;;;;;13.10;11.77;;;12.30;1.00;;;;;;5097724;28;20606;-41
2024/02/17 07:31:15;;;;;;;14.27;12.17;;;12.30;1.00;;;;;;5096802;28;20191;-41
2024/02/17 07:33:46;;;;;;;12.83;11.50;;;12.30;1.00;;;;;;5095380;28;20599;-41
2024/02/17 07:36:12;;;;;;;13.33;11.10;;;12.30;1.00;;;;;;5096395;28;20433;-42
2024/02/17 07:38:39;;;;;;;13.80;11.70;;;12.40;1.00;;;;;;5096995;28;20406;-40
2024/02/17 07:41:04;;;;;;;11.37;10.00;;;12.60;99.90;;;;;;5094235;28;20437;-42
2024/02/17 07:43:30;;;;;;;12.27;11.03;;;12.70;99.90;;;;;;5095514;28;20426;-40
2024/02/17 07:45:56;;;;;;;11.43;10.03;;;12.80;99.90;;;;;;5096640;28;20780;-43
2024/02/17 07:48:21;;;;;;;12.23;10.80;;;12.80;99.90;;;;;;5097767;28;20172;-40
2024/02/17 07:50:47;;;;;;;11.67;10.47;;;13.00;99.90;;;;;;5096846;28;20192;-42
2024/02/17 07:53:13;;;;;;;13.97;12.10;;;13.20;99.90;;;;;;5098408;28;20204;-42
2024/02/17 07:55:38;;;;;;;13.30;11.40;;;13.40;58.80;;;;;;5099233;28;20193;-41
2024/02/17 07:58:06;;;;;;;13.13;11.73;;;13.50;1.00;;;;;;5098826;28;20188;-43
2024/02/17 08:00:32;;;;;;;12.47;11.17;;;13.50;1.00;;;;;;5097235;28;20180;-41
2024/02/17 08:02:57;;;;;;;13.70;12.27;;;13.50;1.00;;;;;;5097320;28;20422;-40
2024/02/17 08:05:23;;;;;;;14.00;12.50;;;13.40;1.00;;;;;;5095189;28;20425;-42
2024/02/17 08:07:49;;;;;;;12.77;11.23;;;13.50;1.00;;;;;;5096114;28;20200;-41
2024/02/17 08:10:14;;;;;;;12.03;10.77;;;13.60;1.00;;;;;;5096508;28;20561;-43
2024/02/17 08:12:40;;;;;;;12.43;11.23;;;13.70;1.00;;;;;;5094777;28;20446;-42
2024/02/17 08:15:07;;;;;;;12.80;11.40;;;13.80;1.00;;;;;;5095210;28;20488;-41
2024/02/17 08:17:34;;;;;;;12.27;10.73;;;13.80;1.00;;;;;;5094044;28;20410;-43
2024/02/17 08:20:00;;;;;;;12.73;11.33;;;13.80;99.90;;;;;;5093636;28;20422;-42
2024/02/17 08:22:26;;;;;;;12.73;11.33;;;13.90;99.90;;;;;;5094559;28;20860;-41
2024/02/17 08:24:51;;;;;;;12.70;11.33;;;14.20;99.90;;;;;;5092492;28;20426;-42
2024/02/17 08:27:17;;;;;;;11.23;10.13;;;14.60;99.90;;;;;;5092896;28;20296;-41
2024/02/17 08:29:43;;;;;;;11.70;10.50;;;15.30;1.00;;;;;;5094212;28;20526;-42
2024/02/17 08:32:10;;;;;;;10.00;9.07;;;15.90;99.90;;;;;;5093397;28;20292;-43
2024/02/17 08:34:36;;;;;;;9.10;8.20;;;16.60;1.00;;;;;;5094256;28;20554;-43
2024/02/17 08:37:01;;;;;;;8.30;7.50;;;17.30;99.90;;;;;;5094396;28;20434;-44
2024/02/17 08:39:27;;;;;;;7.67;6.97;;;17.90;99.90;;;;;;5095408;28;20184;-41
2024/02/17 08:41:54;;;;;;;9.90;9.00;;;18.40;1.00;;;;;;5093050;28;20990;-43
2024/02/17 08:44:19;;;;;;;8.03;7.27;;;18.70;99.90;;;;;;5096709;28;20176;-41
2024/02/17 08:46:45;;;;;;;6.90;6.30;;;18.90;99.90;;;;;;5098779;28;20426;-42
2024/02/17 08:49:10;;;;;;;8.10;7.30;;;18.90;99.90;;;;;;5098746;28;20184;-41
2024/02/17 08:51:37;;;;;;;8.20;7.40;;;18.90;63.10;;;;;;5097886;28;20195;-41
2024/02/17 08:54:03;;;;;;;8.40;7.60;;;18.80;51.10;;;;;;5097099;28;20220;-41
2024/02/17 08:56:28;;;;;;;6.93;6.33;;;18.90;19.40;;;;;;5095964;28;20460;-42
2024/02/17 08:58:54;;;;;;;6.47;5.93;;;19.20;15.50;;;;;;5095126;28;20469;-41
2024/02/17 09:01:20;;;;;;;9.60;6.97;;;19.70;1.00;;;;;;5096945;28;20191;-45
2024/02/17 09:03:47;;;;;;;2.13;0.87;;;20.00;1.00;;;;;;5095577;28;20323;-43
2024/02/17 09:06:13;;;;;;;8.97;2.03;;;20.40;99.90;;;;;;5096773;28;20773;-43
2024/02/17 09:08:39;;;;;;;7.43;2.57;;;21.00;99.90;;;;;;5077254;28;20474;-45
2024/02/17 09:11:05;;;;;;;6.87;2.27;;;21.40;99.90;;;;;;5096630;28;20207;-44
2024/02/17 09:13:30;;;;;;;4.53;2.13;;;21.50;99.90;;;;;;5095926;28;20500;-46
2024/02/17 09:15:56;;;;;;;5.07;2.10;;;21.60;94.40;;;;;;5095549;28;20190;-44
2024/02/17 09:18:23;;;;;;;2.40;1.73;;;21.60;80.60;;;;;;5113304;28;20229;-44
2024/02/17 09:20:50;;;;;;;4.17;2.90;;;21.90;30.80;;;;;;5114966;28;20258;-48
2024/02/17 09:23:15;;;;;;;3.17;2.87;;;22.50;1.00;;;;;;5115448;28;20414;-47
2024/02/17 09:25:42;;;;;;;5.80;3.47;;;23.10;1.00;;;;;;5116505;28;20828;-47
2024/02/17 09:28:07;;;;;;;4.83;4.43;;;23.70;1.00;;;;;;5116991;28;20179;-48
2024/02/17 09:30:34;;;;;;;6.40;5.10;;;24.30;1.00;;;;;;5117245;28;20444;-46
2024/02/17 09:33:01;;;;;;;6.73;5.90;;;24.80;1.00;;;;;;5116535;28;20564;-44
2024/02/17 09:35:27;;;;;;;6.87;6.23;;;25.40;1.00;;;;;;5116505;28;20416;-44
2024/02/17 09:37:52;;;;;;;7.70;6.87;;;25.70;1.00;;;;;;5115548;28;20425;-44
2024/02/17 09:40:19;;;;;;;7.67;6.80;;;25.80;1.00;;;;;;5113891;28;20168;-42
2024/02/17 09:42:47;;;;;;;8.73;7.93;;;26.10;1.00;;;;;;5113762;28;20222;-42
2024/02/17 09:45:12;;;;;;;12.03;7.23;;;26.30;1.00;;;;;;5115597;28;20421;-43
2024/02/17 09:47:43;;;;;;;7.07;6.37;;;26.70;1.00;;;;;;5117293;28;20406;-44
2024/02/17 09:50:10;;;;;;;7.80;5.60;;;27.00;1.00;;;;;;5120306;28;20191;-44
2024/02/17 09:52:37;;;;;;;5.93;5.40;;;27.10;1.00;;;;;;5118052;28;20424;-44
2024/02/17 09:55:06;;;;;;;8.33;5.63;;;27.30;1.00;;;;;;5117779;28;20755;-42
2024/02/17 09:57:32;;;;;;;7.80;6.70;;;27.80;1.00;;;;;;5115924;28;20437;-42
2024/02/17 09:59:57;;;;;;;6.37;5.70;;;28.10;1.00;;;;;;5118444;28;20694;-41
2024/02/17 10:02:23;;;;;;;6.30;5.27;;;28.50;1.00;;;;;;5120752;28;20171;-45
2024/02/17 10:04:56;;;;;;;6.07;5.50;;;28.80;1.00;;;;;;5117143;28;20708;-43
2024/02/17 10:07:22;;;;;;;5.67;4.83;;;29.30;1.00;;;;;;5118063;28;20691;-43
2024/02/17 10:09:48;;;;;;;6.77;6.13;;;29.30;1.00;;;;;;5118947;28;20612;-46
2024/02/17 10:12:13;;;;;;;10.53;7.53;;;29.30;1.00;;;;;;5117236;28;20429;-43
2024/02/17 10:14:43;;;;;;;7.13;6.43;;;29.50;1.00;;;;;;5117577;28;20206;-41
2024/02/17 10:17:09;;;;;;;7.97;7.07;;;29.80;1.00;;;;;;5118352;28;20172;-46
2024/02/17 10:19:35;;;;;;;6.70;6.10;;;30.40;1.00;;;;;;5119965;28;20434;-44
2024/02/17 10:22:01;;;;;;;6.37;5.70;;;30.70;1.00;;;;;;5117187;28;20425;-44
2024/02/17 10:24:27;;;;;;;8.27;6.97;;;31.00;1.00;;;;;;5118413;27;20482;-42
2024/02/17 10:26:53;;;;;;;6.80;6.10;;;31.50;1.00;;;;;;5117505;28;20184;-44
2024/02/17 10:29:19;;;;;;;5.77;5.10;;;31.60;99.90;;;;;;5114928;28;20254;-43
2024/02/17 10:31:47;;;;;;;6.97;5.20;;;31.50;99.90;;;;;;5097485;28;20436;-44
2024/02/17 10:34:13;;;;;;;5.40;4.73;;;31.30;99.90;;;;;;5097478;28;20216;-45
2024/02/17 10:36:38;;;;;;;6.07;4.87;;;31.40;99.90;;;;;;5095875;28;20400;-44
2024/02/17 10:39:06;;;;;;;4.37;3.97;;;31.60;99.90;;;;;;5095937;28;20168;-44
2024/02/17 10:41:36;;;;;;;4.40;4.00;;;32.00;99.90;;;;;;5097476;28;20251;-43
2024/02/17 10:44:03;;;;;;;5.20;4.60;;;31.80;1.00;;;;;;5098347;28;20817;-45
2024/02/17 10:46:29;;;;;;;4.50;3.70;;;31.30;1.00;;;;;;5097210;28;21108;-41
2024/02/17 10:49:28;;;;;;;4.10;2.97;;;31.50;99.90;;;;;;5097692;28;20414;-43
2024/02/17 10:52:04;;;;;;;3.47;2.90;;;31.30;99.90;;;;;;5053976;28;20971;-43
2024/02/17 10:54:45;;;;;;;3.53;3.17;;;31.60;1.00;;;;;;5095583;28;20436;-43
2024/02/17 10:57:13;;;;;;;3.90;3.03;;;31.30;1.00;;;;;;5095181;28;20676;-46
2024/02/17 10:59:42;;;;;;;2.97;2.67;;;31.50;1.00;;;;;;5095179;28;20986;-43
2024/02/17 11:02:10;;;;;;;2.80;2.40;;;31.90;99.90;;;;;;5099001;28;20422;-45
2024/02/17 11:04:36;;;;;;;3.40;2.93;;;31.80;1.00;;;;;;5094972;28;20888;-45
2024/02/17 11:07:02;;;;;;;3.30;2.70;;;31.60;1.00;;;;;;5095835;28;20429;-41
2024/02/17 11:09:28;;;;;;;3.90;2.70;;;31.80;1.00;;;;;;5094662;28;20438;-40
2024/02/17 11:11:54;;;;;;;3.73;2.77;;;32.20;1.00;;;;;;5094826;28;20431;-41
2024/02/17 11:14:41;;;;;;;3.50;2.70;;;31.80;1.00;;;;;;5096985;28;20553;-44
2024/02/17 11:17:09;;;;;;;3.37;2.90;;;30.90;1.00;;;;;;5097912;28;20428;-45
2024/02/17 11:19:35;;;;;;;3.23;2.70;;;30.20;1.00;;;;;;5095826;28;20397;-44
2024/02/17 11:22:06;;;;;;;2.97;2.67;;;29.70;99.90;;;;;;5094459;28;20393;-43
2024/02/17 11:24:35;;;;;;;3.60;2.60;;;30.10;99.90;;;;;;5091702;28;20409;-45
2024/02/17 11:27:00;;;;;;;2.50;2.30;;;30.80;99.90;;;;;;5094937;28;20688;-43
2024/02/17 11:29:33;;;;;;;3.80;2.13;;;31.70;1.00;;;;;;5094375;28;20462;-44
2024/02/17 11:32:03;;;;;;;2.87;2.23;;;32.70;99.90;;;;;;5095738;28;20204;-44
2024/02/17 11:34:28;;;;;;;6.10;2.70;;;33.70;99.90;;;;;;5094235;28;20762;-45
2024/02/17 11:36:55;;;;;;;4.33;2.43;;;34.40;99.90;;;;;;5095504;28;20521;-44
2024/02/17 11:39:22;;;;;;;3.40;3.10;;;34.00;99.90;;;;;;5097987;28;20177;-44
2024/02/17 11:41:49;;;;;;;4.27;3.27;;;33.20;99.90;;;;;;5095355;28;20398;-45
2024/02/17 11:44:14;;;;;;;4.20;2.90;;;32.20;99.90;;;;;;5094813;28;20443;-46
2024/02/17 11:46:43;;;;;;;2.90;2.53;;;31.30;99.90;;;;;;5095265;28;20409;-46
2024/02/17 11:49:22;;;;;;;4.07;2.53;;;30.50;99.90;;;;;;5095192;28;20189;-44
2024/02/17 11:51:48;;;;;;;2.50;2.30;;;29.80;99.90;;;;;;5097093;28;20401;-44
2024/02/17 11:54:16;;;;;;;2.37;1.97;;;29.10;99.90;;;;;;5096396;28;20576;-45
2024/02/17 11:56:43;;;;;;;3.50;2.17;;;28.50;99.90;;;;;;5097255;28;20169;-44
2024/02/17 11:59:10;;;;;;;3.17;2.27;;;28.00;99.90;;;;;;5096267;28;20410;-44
2024/02/17 12:01:41;;;;;;;2.00;1.80;;;27.60;99.90;;;;;;5094820;28;20551;-43
2024/02/17 12:04:08;;;;;;;3.30;2.30;;;27.20;99.90;;;;;;5096926;28;20468;-42
2024/02/17 12:06:34;;;;;;;3.30;2.10;;;26.80;99.90;;;;;;5097547;28;20704;-44
2024/02/17 12:09:03;;;;;;;2.50;1.80;;;26.40;99.90;;;;;;5097621;28;20422;-42
2024/02/17 12:11:29;;;;;;;2.33;1.70;;;26.20;99.90;;;;;;5096227;28;20199;-43
2024/02/17 12:13:54;;;;;;;1.90;1.70;;;25.90;99.90;;;;;;5094973;28;20542;-45
2024/02/17 12:16:21;;;;;;;2.23;1.93;;;25.60;99.90;;;;;;5094087;28;20177;-42
2024/02/17 12:18:47;;;;;;;3.93;1.70;;;25.40;99.90;;;;;;5096218;28;20233;-44
2024/02/17 12:21:13;;;;;;;3.17;2.87;;;25.30;99.90;;;;;;5095655;28;20921;-44
2024/02/17 12:23:41;;;;;;;25.80;22.27;;;25.20;99.90;;;;;;5094698;28;20402;-43
2024/02/17 12:26:07;;;;;;;29.70;25.23;;;25.10;99.90;;;;;;5095129;28;20501;-45
2024/02/17 12:28:34;;;;;;;22.10;19.43;;;25.00;99.90;;;;;;5092997;28;20473;-44
2024/02/17 12:30:59;;;;;;;17.50;15.40;;;24.90;99.90;;;;;;5093032;28;20532;-45
2024/02/17 12:33:26;;;;;;;16.67;14.30;;;24.80;99.90;;;;;;5094866;28;20481;-43
2024/02/17 12:35:52;;;;;;;12.13;10.93;;;24.90;99.90;;;;;;5095784;28;20164;-43
2024/02/17 12:38:20;;;;;;;8.00;7.20;;;25.90;99.90;;;;;;5075841;28;20411;-44
2024/02/17 12:40:49;;;;;;;6.30;5.70;;;27.30;99.90;;;;;;5095122;28;20433;-42
2024/02/17 12:43:22;;;;;;;6.20;5.10;;;28.80;99.90;;;;;;5093730;28;20436;-43
2024/02/17 12:45:48;;;;;;;8.97;6.77;;;29.80;99.90;;;;;;5094346;28;21002;-52
2024/02/17 12:48:15;;;;;;;9.83;7.20;;;30.90;99.90;;;;;;5094567;28;20430;-42
2024/02/17 12:50:41;;;;;;;6.50;5.80;;;30.80;99.90;;;;;;5092840;28;20410;-47